KALN/ALN METAR and TAF weather

Enter ICAO airport designator
Station Type Date Time Source
KALN METAR 2019/10/18 05:55 UTC NOAA

KALN 180555Z AUTO 08003KT 10SM CLR 03/03 A3001 RMK AO2 T00310031 10085 20031 401520007


Station Type Date Time Source
KALN Decoded METAR 2019/10/18 05:55 UTC NOAA

Alton/St. Louis, St. Louis Regional Airport, IL, United States (KALN) 38-54N 090-03W
Oct 18, 2019 - 01:55 AM EDT / 2019.10.18 0555 UTC
Wind: from the E (080 degrees) at 3 MPH (3 KT):0
Visibility: 10 mile(s):0
Sky conditions: clear
Temperature: 37.6 F (3.1 C)
Dew Point: 37.6 F (3.1 C)
Relative Humidity: 100%
Pressure (altimeter): 30.01 in. Hg (1016 hPa)
ob: KALN 180555Z AUTO 08003KT 10SM CLR 03/03 A3001 RMK AO2 T00310031 10085 20031 401520007
cycle: 6

Station Type Date Time Source
KALN TAF UTC NOAA

Error!

Example: see airport list